Time;durP1;ratioP1;P1;durP2;ratioP2;P2;SDS_P1;SDS_P2;PMS_P1;PMS_P2;Temp;Humidity;BMP_temperature;BMP_pressure;BME280_temperature;BME280_humidity;BME280_pressure;Samples;Min_cycle;Max_cycle;Signal;HPM_P1;HPM_P2
2023/06/30 00:01:26;;;;;;;12.95;6.15;;;21.00;80.80;;;;;;5064519;28;20111;-82
2023/06/30 00:03:52;;;;;;;10.77;5.13;;;21.00;80.80;;;;;;5064292;28;20044;-81
2023/06/30 00:06:17;;;;;;;9.35;6.00;;;21.00;80.70;;;;;;5061065;28;20049;-82
2023/06/30 00:08:43;;;;;;;10.48;5.68;;;20.90;80.60;;;;;;5063922;28;20080;-81
2023/06/30 00:11:09;;;;;;;7.97;5.30;;;21.00;80.80;;;;;;5061018;28;20040;-82
2023/06/30 00:13:35;;;;;;;9.60;5.82;;;21.00;80.80;;;;;;5059817;28;20066;-81
2023/06/30 00:16:01;;;;;;;10.07;5.15;;;21.00;80.90;;;;;;5059253;28;20060;-82
2023/06/30 00:18:27;;;;;;;12.00;5.57;;;21.00;80.90;;;;;;5065418;28;20027;-82
2023/06/30 00:20:54;;;;;;;10.70;5.53;;;21.00;81.10;;;;;;5067356;28;20409;-81
2023/06/30 00:23:20;;;;;;;10.95;5.95;;;21.00;81.00;;;;;;5057432;28;20665;-82
2023/06/30 00:25:45;;;;;;;13.77;6.32;;;21.00;80.80;;;;;;5038738;28;20047;-81
2023/06/30 00:28:11;;;;;;;15.18;6.30;;;21.00;80.90;;;;;;5058982;28;20115;-81
2023/06/30 00:30:38;;;;;;;10.77;6.38;;;21.00;81.00;;;;;;5035144;28;20620;-82
2023/06/30 00:33:04;;;;;;;15.13;6.72;;;21.00;81.10;;;;;;5042984;28;20017;-81
2023/06/30 00:35:30;;;;;;;9.95;5.57;;;20.90;80.90;;;;;;5060937;28;20466;-81
2023/06/30 00:37:55;;;;;;;19.20;6.25;;;20.90;80.80;;;;;;5065466;28;20016;-81
2023/06/30 00:40:21;;;;;;;14.93;6.35;;;20.90;80.90;;;;;;5046128;28;20070;-82
2023/06/30 00:42:47;;;;;;;10.60;6.25;;;20.90;80.90;;;;;;5045013;28;20362;-81
2023/06/30 00:45:13;;;;;;;10.45;5.55;;;20.90;80.90;;;;;;5047485;28;20028;-82
2023/06/30 00:47:39;;;;;;;13.43;5.88;;;20.90;81.00;;;;;;5058464;28;20021;-81
2023/06/30 00:50:05;;;;;;;11.38;6.40;;;20.90;81.00;;;;;;5040846;28;20079;-81
2023/06/30 00:52:32;;;;;;;17.50;5.75;;;20.90;81.00;;;;;;5062103;28;20048;-82
2023/06/30 00:54:57;;;;;;;10.40;6.05;;;20.90;81.10;;;;;;5042413;28;20055;-81
2023/06/30 00:57:23;;;;;;;12.82;6.35;;;20.90;81.00;;;;;;5062387;28;20052;-81
2023/06/30 00:59:49;;;;;;;13.05;6.03;;;20.90;81.10;;;;;;5049787;28;20020;-82
2023/06/30 01:02:22;;;;;;;12.43;5.75;;;20.90;81.10;;;;;;5059721;28;20032;-81
2023/06/30 01:05:17;;;;;;;11.40;6.80;;;20.90;81.90;;;;;;5062231;28;20363;-81
2023/06/30 01:07:45;;;;;;;11.55;7.30;;;20.90;81.30;;;;;;5058276;28;20074;-82
2023/06/30 01:10:16;;;;;;;13.32;7.13;;;20.90;81.30;;;;;;5047893;28;20580;-81
2023/06/30 01:12:44;;;;;;;13.43;7.10;;;20.90;81.40;;;;;;5043535;28;20066;-81
2023/06/30 01:15:11;;;;;;;17.38;6.38;;;20.90;81.60;;;;;;5047988;28;20472;-81
2023/06/30 01:17:45;;;;;;;18.58;7.57;;;20.90;81.80;;;;;;5039547;28;20056;-82
2023/06/30 01:20:16;;;;;;;13.48;7.05;;;20.90;81.60;;;;;;5039848;28;20045;-81
2023/06/30 01:22:48;;;;;;;12.73;6.78;;;20.90;81.50;;;;;;5037666;28;20075;-82
2023/06/30 01:25:22;;;;;;;12.85;6.70;;;20.90;81.50;;;;;;5050332;28;20057;-81
2023/06/30 01:27:49;;;;;;;12.65;7.35;;;20.90;82.20;;;;;;5042448;28;20056;-81
2023/06/30 01:30:15;;;;;;;15.32;6.90;;;20.90;81.50;;;;;;5041444;28;20080;-82
2023/06/30 01:32:41;;;;;;;12.38;6.85;;;20.90;81.80;;;;;;5046451;28;20016;-81
2023/06/30 01:35:08;;;;;;;18.48;7.70;;;20.90;81.60;;;;;;5024163;28;20513;-81
2023/06/30 01:37:33;;;;;;;13.35;7.55;;;20.90;81.70;;;;;;5021148;28;20017;-81
2023/06/30 01:40:00;;;;;;;12.70;7.43;;;20.90;81.80;;;;;;5027914;28;20079;-81
2023/06/30 01:42:27;;;;;;;15.57;8.20;;;20.90;81.70;;;;;;5045332;28;20034;-81
2023/06/30 01:44:53;;;;;;;14.68;7.50;;;20.90;81.70;;;;;;5042784;28;20025;-81
2023/06/30 01:47:19;;;;;;;12.57;7.32;;;20.90;82.00;;;;;;5023749;28;20079;-81
2023/06/30 01:49:45;;;;;;;11.57;6.68;;;20.90;82.00;;;;;;5042432;28;20037;-81
2023/06/30 01:52:11;;;;;;;13.05;7.30;;;20.90;81.90;;;;;;5021042;28;20025;-81
2023/06/30 01:54:37;;;;;;;14.85;6.72;;;20.80;81.80;;;;;;5045480;28;20021;-81
2023/06/30 01:57:03;;;;;;;13.15;6.70;;;20.90;81.80;;;;;;5043389;28;20045;-81
2023/06/30 01:59:28;;;;;;;16.05;7.53;;;20.90;82.20;;;;;;5043765;28;20029;-81
2023/06/30 02:01:54;;;;;;;12.25;6.68;;;20.80;82.00;;;;;;5041686;28;20021;-82
2023/06/30 02:04:20;;;;;;;15.45;7.35;;;20.90;82.30;;;;;;5040661;28;20028;-81
2023/06/30 02:06:45;;;;;;;12.85;7.03;;;20.90;82.10;;;;;;5023297;28;20020;-81
2023/06/30 02:09:14;;;;;;;14.38;6.95;;;20.80;82.00;;;;;;5044798;28;20029;-82
2023/06/30 02:11:40;;;;;;;11.32;5.63;;;20.80;82.70;;;;;;5049513;28;20440;-81
2023/06/30 02:14:05;;;;;;;15.27;6.13;;;20.80;82.10;;;;;;5047171;28;20021;-81
2023/06/30 02:16:31;;;;;;;13.25;7.60;;;20.80;82.20;;;;;;5048895;28;20026;-81
2023/06/30 02:18:57;;;;;;;17.73;6.95;;;20.80;82.50;;;;;;5052648;28;20525;-82
2023/06/30 02:21:24;;;;;;;14.45;7.22;;;20.80;82.00;;;;;;5064351;28;20021;-81
2023/06/30 02:23:49;;;;;;;13.15;6.05;;;20.80;82.10;;;;;;5066567;28;20625;-82
2023/06/30 02:26:15;;;;;;;13.57;6.18;;;20.80;82.40;;;;;;5069474;28;20029;-82
2023/06/30 02:28:41;;;;;;;11.50;6.63;;;20.80;82.50;;;;;;5067299;28;20116;-81
2023/06/30 02:31:07;;;;;;;12.65;6.40;;;20.80;82.50;;;;;;5063674;28;20039;-82
2023/06/30 02:33:32;;;;;;;13.82;7.10;;;20.80;82.30;;;;;;5066843;28;20024;-82
2023/06/30 02:35:58;;;;;;;11.77;6.13;;;20.80;82.30;;;;;;5056770;28;20016;-82
2023/06/30 02:38:24;;;;;;;15.73;6.60;;;20.80;82.10;;;;;;5045751;28;20028;-82
2023/06/30 02:40:49;;;;;;;18.27;7.43;;;20.80;82.40;;;;;;5059176;28;20385;-81
2023/06/30 02:43:15;;;;;;;11.63;6.90;;;20.80;82.30;;;;;;5063965;28;20032;-82
2023/06/30 02:45:40;;;;;;;13.07;6.97;;;20.80;83.20;;;;;;5046722;28;20021;-81
2023/06/30 02:48:06;;;;;;;14.90;8.20;;;20.80;82.30;;;;;;5066557;28;20028;-81
2023/06/30 02:50:32;;;;;;;15.32;7.38;;;20.80;82.30;;;;;;5066619;28;20036;-81
2023/06/30 02:52:58;;;;;;;16.20;8.10;;;20.80;82.50;;;;;;5067193;28;20013;-82
2023/06/30 02:55:24;;;;;;;19.05;8.85;;;20.80;82.50;;;;;;5062124;28;20021;-81
2023/06/30 02:57:50;;;;;;;16.25;7.85;;;20.80;82.60;;;;;;5063267;28;20389;-81
2023/06/30 03:00:16;;;;;;;13.20;6.78;;;20.80;83.00;;;;;;5060163;28;20033;-81
2023/06/30 03:02:42;;;;;;;16.05;7.15;;;20.80;82.70;;;;;;5059095;28;20021;-82
2023/06/30 03:05:08;;;;;;;10.68;6.68;;;20.80;82.70;;;;;;5061106;28;20021;-81
2023/06/30 03:07:34;;;;;;;11.75;6.22;;;20.80;82.90;;;;;;5064848;28;20075;-81
2023/06/30 03:10:00;;;;;;;13.38;5.97;;;20.80;82.80;;;;;;5051167;28;20032;-82
2023/06/30 03:12:26;;;;;;;11.80;6.07;;;20.80;82.80;;;;;;5063732;28;20021;-81
2023/06/30 03:14:52;;;;;;;13.32;6.43;;;20.80;83.00;;;;;;5060213;28;20067;-82
2023/06/30 03:17:18;;;;;;;14.27;7.20;;;20.80;82.90;;;;;;5038706;28;20052;-81
2023/06/30 03:19:43;;;;;;;15.25;8.43;;;20.80;82.90;;;;;;5045465;28;20033;-82
2023/06/30 03:22:09;;;;;;;15.88;9.35;;;20.80;82.90;;;;;;5021569;28;20028;-81
2023/06/30 03:24:35;;;;;;;15.68;8.52;;;20.80;82.90;;;;;;5043187;28;20052;-81
2023/06/30 03:27:00;;;;;;;15.38;7.50;;;20.80;82.80;;;;;;5017939;28;20053;-81
2023/06/30 03:29:26;;;;;;;17.38;9.02;;;20.80;82.80;;;;;;5037578;28;20140;-81
2023/06/30 03:31:52;;;;;;;19.27;8.32;;;20.80;82.90;;;;;;5036840;28;20040;-81
2023/06/30 03:34:18;;;;;;;21.10;7.82;;;20.80;83.00;;;;;;5026472;28;20090;-80
2023/06/30 03:36:43;;;;;;;13.68;7.13;;;20.80;83.00;;;;;;5042192;28;20109;-81
2023/06/30 03:39:09;;;;;;;14.88;7.40;;;20.80;83.20;;;;;;5036138;28;20428;-81
2023/06/30 03:41:35;;;;;;;15.80;7.05;;;20.80;83.40;;;;;;5017718;28;20412;-81
2023/06/30 03:44:01;;;;;;;11.93;6.85;;;20.80;83.20;;;;;;5018847;28;20071;-81
2023/06/30 03:46:26;;;;;;;13.07;7.40;;;20.80;83.30;;;;;;5015603;28;20486;-81
2023/06/30 03:48:52;;;;;;;12.45;7.07;;;20.80;83.20;;;;;;5017909;28;20073;-82
2023/06/30 03:51:18;;;;;;;14.77;8.05;;;20.80;83.20;;;;;;5031317;28;20644;-82
2023/06/30 03:53:43;;;;;;;15.27;7.57;;;20.80;83.20;;;;;;5037937;28;20478;-82
2023/06/30 03:56:10;;;;;;;14.45;7.03;;;20.80;83.30;;;;;;5028867;28;20559;-81
2023/06/30 03:58:35;;;;;;;22.00;8.68;;;20.80;83.40;;;;;;5012409;28;20052;-81
2023/06/30 04:01:01;;;;;;;15.52;7.93;;;20.80;83.30;;;;;;5036660;28;20115;-81
2023/06/30 04:03:27;;;;;;;22.38;9.18;;;20.80;83.50;;;;;;5032561;28;20108;-81
2023/06/30 04:05:53;;;;;;;16.30;8.82;;;20.80;83.30;;;;;;5031745;28;20646;-81
2023/06/30 04:08:19;;;;;;;14.65;7.93;;;20.70;83.20;;;;;;5035343;28;20028;-81
2023/06/30 04:10:44;;;;;;;22.63;10.05;;;20.80;83.50;;;;;;5034879;28;20390;-82
2023/06/30 04:13:10;;;;;;;15.70;6.90;;;20.80;83.30;;;;;;5037796;28;20028;-81
2023/06/30 04:15:36;;;;;;;22.85;10.02;;;20.80;83.40;;;;;;5032653;28;20032;-81
2023/06/30 04:18:02;;;;;;;20.05;8.68;;;20.80;83.40;;;;;;5036193;28;20430;-81
2023/06/30 04:20:28;;;;;;;23.65;10.20;;;20.70;83.50;;;;;;5034251;28;20044;-82
2023/06/30 04:22:53;;;;;;;19.35;10.95;;;20.70;83.70;;;;;;5015462;28;20021;-81
2023/06/30 04:25:19;;;;;;;16.15;9.02;;;20.80;83.80;;;;;;5023715;28;20120;-81
2023/06/30 04:27:45;;;;;;;21.73;10.20;;;20.70;83.60;;;;;;5039914;28;20029;-82
2023/06/30 04:30:11;;;;;;;21.55;8.73;;;20.70;83.50;;;;;;5024892;28;20056;-81
2023/06/30 04:32:38;;;;;;;25.48;9.15;;;20.70;84.30;;;;;;5035741;28;20091;-81
2023/06/30 04:35:04;;;;;;;21.35;9.88;;;20.70;83.60;;;;;;5035411;28;20815;-81
2023/06/30 04:37:29;;;;;;;17.40;9.32;;;20.70;83.60;;;;;;5034475;28;20033;-81
2023/06/30 04:39:58;;;;;;;22.45;10.02;;;20.80;83.90;;;;;;5036094;28;20040;-82
2023/06/30 04:42:27;;;;;;;32.25;11.02;;;20.70;83.70;;;;;;5023288;28;20465;-82
2023/06/30 04:44:53;;;;;;;21.77;11.00;;;20.80;83.70;;;;;;5040779;28;20503;-82
2023/06/30 04:47:19;;;;;;;27.33;11.18;;;20.80;84.00;;;;;;5024632;28;20026;-81
2023/06/30 04:49:44;;;;;;;22.85;11.23;;;20.70;83.80;;;;;;5034557;28;20104;-82
2023/06/30 04:52:10;;;;;;;21.63;11.43;;;20.80;83.80;;;;;;5037228;28;20025;-82
2023/06/30 04:54:36;;;;;;;23.25;10.90;;;20.70;83.90;;;;;;5021064;28;20036;-81
2023/06/30 04:57:02;;;;;;;23.65;12.48;;;20.70;83.80;;;;;;5025866;28;20091;-81
2023/06/30 04:59:28;;;;;;;27.98;12.23;;;20.70;84.10;;;;;;5041986;28;20033;-81
2023/06/30 05:01:53;;;;;;;24.58;11.48;;;20.70;84.00;;;;;;5041067;28;20029;-81
2023/06/30 05:04:19;;;;;;;23.38;11.85;;;20.70;84.00;;;;;;5028080;28;20025;-81
2023/06/30 05:06:44;;;;;;;20.65;10.30;;;20.70;84.00;;;;;;5022318;28;20032;-82
2023/06/30 05:09:10;;;;;;;30.08;13.02;;;20.70;84.20;;;;;;5041355;28;20040;-81
2023/06/30 05:11:36;;;;;;;21.25;11.68;;;20.70;84.30;;;;;;5043320;28;20104;-81
2023/06/30 05:14:02;;;;;;;26.92;12.35;;;20.70;84.30;;;;;;5040829;28;20414;-82
2023/06/30 05:16:27;;;;;;;21.58;11.73;;;20.70;84.10;;;;;;5036593;28;20025;-82
2023/06/30 05:18:53;;;;;;;31.05;13.23;;;20.70;84.30;;;;;;5040040;28;20051;-82
2023/06/30 05:21:18;;;;;;;27.45;12.50;;;20.70;84.60;;;;;;5043154;28;20411;-81
2023/06/30 05:23:44;;;;;;;22.80;11.68;;;20.70;84.60;;;;;;5041455;28;20017;-81
2023/06/30 05:26:10;;;;;;;27.42;12.25;;;20.70;85.30;;;;;;5042088;28;20041;-81
2023/06/30 05:28:36;;;;;;;28.38;13.35;;;20.70;84.90;;;;;;5054264;28;20053;-81
2023/06/30 05:31:02;;;;;;;24.77;13.00;;;20.70;85.00;;;;;;5039839;28;20477;-81
2023/06/30 05:33:28;;;;;;;29.42;13.73;;;20.70;84.90;;;;;;5048638;28;20090;-81
2023/06/30 05:35:53;;;;;;;34.42;14.90;;;20.70;85.00;;;;;;5034828;28;20021;-81
2023/06/30 05:38:19;;;;;;;35.20;15.57;;;20.70;84.90;;;;;;5047987;28;20048;-81
2023/06/30 05:40:45;;;;;;;31.55;14.80;;;20.70;84.90;;;;;;5054511;28;20025;-82
2023/06/30 05:43:10;;;;;;;34.80;15.30;;;20.70;84.90;;;;;;5053669;28;20497;-81
2023/06/30 05:45:37;;;;;;;34.42;14.85;;;20.70;85.40;;;;;;5063163;28;20435;-81
2023/06/30 05:48:03;;;;;;;39.22;16.13;;;20.70;85.10;;;;;;5061059;28;20532;-81
2023/06/30 05:50:29;;;;;;;35.78;15.70;;;20.70;85.30;;;;;;5063901;28;20130;-81
2023/06/30 05:52:55;;;;;;;38.05;16.17;;;20.70;85.40;;;;;;5065652;28;20483;-81
2023/06/30 05:55:21;;;;;;;34.33;15.82;;;20.70;85.20;;;;;;5065505;28;20030;-81
2023/06/30 05:57:47;;;;;;;38.20;16.92;;;20.70;85.40;;;;;;5064337;28;20030;-88
2023/06/30 06:00:13;;;;;;;33.92;16.13;;;20.70;85.80;;;;;;5050071;28;20033;-81
2023/06/30 06:02:39;;;;;;;37.45;16.85;;;20.70;87.70;;;;;;5040626;28;20032;-81
2023/06/30 06:05:05;;;;;;;34.63;16.60;;;20.70;87.70;;;;;;5064805;28;20492;-81
2023/06/30 06:07:31;;;;;;;36.30;16.33;;;20.70;87.20;;;;;;5049987;28;20021;-80
2023/06/30 06:09:56;;;;;;;36.10;15.15;;;20.70;87.00;;;;;;5063177;28;20063;-81
2023/06/30 06:12:22;;;;;;;34.97;15.63;;;20.70;86.70;;;;;;5044424;28;20377;-81
2023/06/30 06:14:48;;;;;;;35.40;16.05;;;20.70;86.30;;;;;;5059770;28;20095;-81
2023/06/30 06:17:13;;;;;;;35.88;15.02;;;20.70;86.50;;;;;;5061185;28;20037;-81
2023/06/30 06:19:39;;;;;;;33.13;15.15;;;20.70;86.40;;;;;;5046952;28;20014;-81
2023/06/30 06:22:05;;;;;;;34.38;15.25;;;20.70;86.50;;;;;;5045674;28;20017;-81
2023/06/30 06:24:30;;;;;;;28.30;13.02;;;20.80;86.40;;;;;;5037952;28;20415;-81
2023/06/30 06:26:56;;;;;;;40.95;14.98;;;20.70;86.50;;;;;;5046678;28;20020;-82
2023/06/30 06:29:22;;;;;;;30.23;14.80;;;20.70;86.50;;;;;;5053525;28;20035;-82
2023/06/30 06:31:49;;;;;;;34.33;16.13;;;20.70;86.40;;;;;;5040813;28;20028;-82
2023/06/30 06:34:15;;;;;;;33.03;14.93;;;20.70;86.50;;;;;;5041582;28;20025;-82
2023/06/30 06:36:41;;;;;;;30.80;13.30;;;20.70;86.70;;;;;;5022023;28;20017;-81
2023/06/30 06:39:07;;;;;;;31.50;14.60;;;20.70;86.40;;;;;;5057513;28;20536;-81
2023/06/30 06:41:32;;;;;;;29.73;15.15;;;20.70;86.40;;;;;;5049716;28;20016;-80
2023/06/30 06:43:58;;;;;;;34.17;15.95;;;20.70;86.50;;;;;;5045903;28;20052;-81
2023/06/30 06:46:24;;;;;;;40.55;14.93;;;20.70;86.10;;;;;;5044712;28;20020;-82
2023/06/30 06:48:49;;;;;;;29.77;15.23;;;20.70;86.60;;;;;;5025962;28;20509;-81
2023/06/30 06:51:15;;;;;;;32.83;15.27;;;20.70;86.50;;;;;;5036454;28;20029;-85
2023/06/30 06:53:40;;;;;;;35.17;16.23;;;20.70;89.80;;;;;;5036283;28;20551;-84
2023/06/30 06:56:06;;;;;;;39.38;16.27;;;20.50;91.60;;;;;;5039304;28;20062;-85
2023/06/30 06:58:35;;;;;;;37.83;16.30;;;20.40;92.70;;;;;;5038027;28;20025;-84
2023/06/30 07:01:01;;;;;;;35.42;14.88;;;20.30;93.20;;;;;;5025477;28;20391;-85
2023/06/30 07:03:27;;;;;;;31.65;14.88;;;20.20;93.70;;;;;;5038510;28;20028;-84
2023/06/30 07:05:55;;;;;;;35.97;15.70;;;20.20;94.10;;;;;;5021753;28;20033;-84
2023/06/30 07:08:21;;;;;;;39.30;15.52;;;20.20;94.80;;;;;;5044550;28;20393;-85
2023/06/30 07:10:48;;;;;;;34.55;16.17;;;20.10;95.20;;;;;;5038621;28;20032;-85
2023/06/30 07:13:16;;;;;;;37.17;15.85;;;20.10;95.80;;;;;;5030170;28;20386;-85
2023/06/30 07:15:42;;;;;;;38.25;16.13;;;20.10;95.80;;;;;;5046056;28;20021;-85
2023/06/30 07:18:07;;;;;;;39.10;17.95;;;20.10;96.20;;;;;;5040550;28;20079;-84
2023/06/30 07:20:33;;;;;;;35.90;16.35;;;20.10;96.40;;;;;;5037206;28;20060;-85
2023/06/30 07:22:59;;;;;;;35.03;16.38;;;20.00;96.80;;;;;;5044365;28;20373;-84
2023/06/30 07:25:25;;;;;;;35.35;16.35;;;20.00;96.90;;;;;;5043252;28;20032;-86
2023/06/30 07:27:53;;;;;;;42.88;17.50;;;20.00;97.20;;;;;;5027825;28;20055;-89
2023/06/30 07:30:26;;;;;;;44.17;17.70;;;20.00;97.60;;;;;;5028071;28;20043;-88
2023/06/30 07:32:53;;;;;;;35.33;16.27;;;19.90;98.10;;;;;;5029112;28;20022;-91
2023/06/30 07:35:20;;;;;;;31.73;14.38;;;19.90;98.40;;;;;;5022865;28;20171;-91
2023/06/30 07:37:47;;;;;;;40.45;17.05;;;19.90;98.80;;;;;;5018907;28;20029;-90
2023/06/30 07:40:14;;;;;;;31.73;15.30;;;19.80;99.10;;;;;;5028059;28;20025;-90
2023/06/30 07:42:40;;;;;;;40.25;17.60;;;19.90;99.20;;;;;;5029310;28;20385;-88
2023/06/30 07:45:11;;;;;;;35.03;15.60;;;19.90;99.50;;;;;;5025872;28;20108;-87
2023/06/30 07:47:37;;;;;;;40.05;16.60;;;20.00;99.20;;;;;;5022768;28;20025;-88
2023/06/30 07:50:09;;;;;;;31.80;15.35;;;20.10;99.10;;;;;;5040246;28;20039;-85
2023/06/30 07:52:36;;;;;;;31.27;15.02;;;20.00;99.20;;;;;;5027279;28;20364;-88
2023/06/30 07:55:03;;;;;;;29.85;14.35;;;20.00;99.40;;;;;;5027057;28;20081;-82
2023/06/30 07:57:29;;;;;;;28.85;13.48;;;20.00;99.70;;;;;;5042584;28;20026;-87
2023/06/30 07:59:54;;;;;;;30.02;13.38;;;19.90;99.70;;;;;;5040744;28;20366;-85
2023/06/30 08:02:20;;;;;;;22.15;12.30;;;19.80;99.90;;;;;;5042318;28;20052;-85
2023/06/30 08:04:45;;;;;;;27.23;12.82;;;19.80;99.90;;;;;;5040042;28;20051;-86
2023/06/30 08:07:11;;;;;;;23.35;12.18;;;19.80;99.90;;;;;;5042902;28;20366;-89
2023/06/30 08:09:37;;;;;;;28.60;13.65;;;19.90;99.90;;;;;;5029021;28;20090;-89
2023/06/30 08:12:02;;;;;;;25.70;12.35;;;19.80;99.90;;;;;;5027330;28;20501;-85
2023/06/30 08:14:28;;;;;;;30.60;12.55;;;19.90;99.90;;;;;;5026553;28;20032;-88
2023/06/30 08:16:54;;;;;;;28.13;11.93;;;19.80;99.90;;;;;;5027213;28;20017;-88
2023/06/30 08:19:19;;;;;;;28.00;11.20;;;19.90;99.90;;;;;;5043631;28;20029;-86
2023/06/30 08:21:45;;;;;;;19.90;9.98;;;19.80;99.90;;;;;;5027568;28;20382;-87
2023/06/30 08:24:10;;;;;;;15.48;8.13;;;19.80;99.90;;;;;;5040149;28;20086;-90
2023/06/30 08:26:36;;;;;;;20.30;9.13;;;19.80;99.90;;;;;;5044871;28;20013;-87
2023/06/30 08:29:02;;;;;;;20.75;9.35;;;19.80;99.90;;;;;;5042286;28;20713;-87
2023/06/30 08:31:28;;;;;;;22.17;8.98;;;19.80;99.90;;;;;;5044789;28;20029;-87
2023/06/30 08:33:54;;;;;;;23.02;8.55;;;19.90;99.90;;;;;;5045825;28;20025;-88
2023/06/30 08:36:21;;;;;;;16.88;8.80;;;19.80;99.90;;;;;;5042366;28;20132;-88
2023/06/30 08:38:47;;;;;;;17.95;9.25;;;19.70;99.90;;;;;;5042408;28;20027;-88
2023/06/30 08:41:14;;;;;;;22.60;8.38;;;19.70;99.90;;;;;;5042991;28;20036;-88
2023/06/30 08:43:41;;;;;;;21.13;9.40;;;19.80;99.90;;;;;;5040918;28;20032;-89
2023/06/30 08:46:08;;;;;;;24.40;11.23;;;19.80;99.90;;;;;;5038327;28;20446;-88
2023/06/30 08:48:36;;;;;;;22.30;9.23;;;19.80;99.90;;;;;;5022328;28;20025;-86
2023/06/30 08:51:02;;;;;;;24.60;9.75;;;19.80;99.90;;;;;;5040967;28;20124;-87
2023/06/30 08:53:30;;;;;;;23.63;9.90;;;19.80;99.90;;;;;;5046650;28;20146;-89
2023/06/30 08:55:58;;;;;;;22.25;10.25;;;19.80;99.90;;;;;;5041429;28;20028;-88
2023/06/30 08:58:27;;;;;;;21.95;10.73;;;19.80;99.90;;;;;;5040254;28;20021;-87
2023/06/30 09:00:54;;;;;;;19.73;9.88;;;19.90;99.90;;;;;;5025610;28;20041;-90
2023/06/30 09:03:20;;;;;;;26.70;10.30;;;19.70;99.90;;;;;;5046531;28;20029;-87
2023/06/30 09:05:47;;;;;;;25.25;11.00;;;19.70;99.90;;;;;;5025694;28;20037;-88
2023/06/30 09:08:21;;;;;;;23.65;10.20;;;19.60;99.90;;;;;;5042718;28;20029;-90
2023/06/30 09:10:48;;;;;;;23.25;10.30;;;19.60;99.90;;;;;;5023229;28;20033;-89
2023/06/30 09:13:19;;;;;;;20.60;10.27;;;19.50;99.90;;;;;;5039020;28;20057;-93
2023/06/30 09:15:45;;;;;;;22.00;10.13;;;19.60;99.90;;;;;;5026925;28;20053;-92
2023/06/30 09:18:12;;;;;;;21.55;10.23;;;19.50;99.90;;;;;;5039830;28;20086;-87
2023/06/30 09:20:38;;;;;;;20.90;9.27;;;19.60;99.90;;;;;;5069266;28;20111;-93
2023/06/30 09:23:06;;;;;;;22.60;10.90;;;19.60;99.90;;;;;;5067107;28;20116;-93
2023/06/30 09:25:35;;;;;;;30.38;10.43;;;19.60;99.90;;;;;;5042932;28;20040;-91
2023/06/30 09:28:10;;;;;;;22.00;9.63;;;19.60;99.90;;;;;;5048322;28;20469;-92
2023/06/30 09:30:40;;;;;;;22.17;9.82;;;19.70;99.90;;;;;;5045540;28;20037;-87
2023/06/30 09:33:06;;;;;;;20.83;10.20;;;20.20;99.90;;;;;;5037878;28;20525;-92
2023/06/30 09:35:43;;;;;;;25.70;10.77;;;19.50;99.90;;;;;;5044038;28;20128;-92
2023/06/30 09:38:16;;;;;;;25.25;10.52;;;19.50;99.90;;;;;;5063283;28;20025;-92
2023/06/30 09:40:46;;;;;;;22.48;12.07;;;19.60;99.90;;;;;;5061327;28;20028;-92
2023/06/30 09:43:20;;;;;;;19.85;10.45;;;19.60;99.90;;;;;;5049504;28;20140;-87
2023/06/30 09:45:48;;;;;;;24.92;11.98;;;19.70;99.90;;;;;;5057987;28;20122;-92
2023/06/30 09:48:13;;;;;;;24.25;11.70;;;19.60;99.90;;;;;;5042427;28;20036;-92
2023/06/30 09:50:41;;;;;;;27.45;11.75;;;19.60;99.90;;;;;;5040869;28;20036;-91
2023/06/30 09:53:08;;;;;;;21.63;9.95;;;19.60;99.90;;;;;;5052137;28;20021;-92
2023/06/30 09:55:48;;;;;;;24.25;11.68;;;19.70;99.90;;;;;;5044107;28;20063;-91
2023/06/30 09:58:16;;;;;;;29.52;12.18;;;19.70;99.90;;;;;;5060996;28;20032;-91
2023/06/30 10:00:42;;;;;;;30.85;12.73;;;19.70;99.90;;;;;;5056673;28;20078;-92
2023/06/30 10:03:11;;;;;;;27.00;12.32;;;19.70;99.90;;;;;;5040435;28;20473;-91
2023/06/30 10:05:37;;;;;;;25.88;11.07;;;19.70;99.90;;;;;;5044369;28;20074;-90
2023/06/30 10:08:03;;;;;;;28.42;13.20;;;19.70;99.90;;;;;;5067308;28;20052;-83
2023/06/30 10:10:30;;;;;;;27.90;12.25;;;19.70;99.90;;;;;;5063080;28;20558;-91
2023/06/30 10:12:58;;;;;;;33.75;14.05;;;19.70;99.90;;;;;;5045430;28;20020;-92
2023/06/30 10:15:24;;;;;;;29.40;13.77;;;19.70;99.90;;;;;;5044301;28;20500;-91
2023/06/30 10:17:52;;;;;;;32.92;14.70;;;19.70;99.90;;;;;;5061748;28;20025;-91
2023/06/30 10:20:18;;;;;;;31.42;13.45;;;19.70;99.90;;;;;;5041277;28;20029;-91
2023/06/30 10:22:45;;;;;;;32.30;13.65;;;19.70;99.90;;;;;;5047089;28;20503;-92
2023/06/30 10:25:11;;;;;;;28.60;12.95;;;19.70;99.90;;;;;;5049266;28;20025;-91
2023/06/30 10:27:38;;;;;;;34.58;13.98;;;19.70;99.90;;;;;;5050605;28;20021;-89
2023/06/30 10:30:04;;;;;;;33.38;13.98;;;19.70;99.90;;;;;;5050493;28;20033;-90
2023/06/30 10:32:29;;;;;;;34.58;13.75;;;19.80;99.90;;;;;;5044660;28;20086;-91
2023/06/30 10:34:57;;;;;;;31.30;14.27;;;19.80;99.90;;;;;;5046246;28;20025;-89
2023/06/30 10:37:24;;;;;;;33.33;14.68;;;19.80;99.90;;;;;;5044256;28;20029;-88
2023/06/30 10:39:50;;;;;;;29.98;13.23;;;19.80;99.90;;;;;;5048289;28;20089;-90
2023/06/30 10:42:16;;;;;;;27.38;12.85;;;19.80;99.90;;;;;;5048353;28;20049;-90
2023/06/30 10:44:46;;;;;;;27.02;11.98;;;19.90;99.90;;;;;;5045413;28;20551;-90
2023/06/30 10:47:13;;;;;;;24.65;10.38;;;19.90;99.90;;;;;;5046549;28;20031;-89
2023/06/30 10:49:40;;;;;;;29.25;11.40;;;19.90;99.90;;;;;;5050011;28;20051;-89
2023/06/30 10:52:27;;;;;;;20.75;10.18;;;19.90;99.90;;;;;;5045517;28;20104;-90
2023/06/30 10:54:53;;;;;;;20.52;10.25;;;20.00;99.90;;;;;;5047158;28;20036;-92
2023/06/30 10:57:23;;;;;;;21.95;10.13;;;20.00;99.90;;;;;;5039577;28;20029;-92
2023/06/30 11:00:07;;;;;;;25.27;10.75;;;20.00;99.90;;;;;;5052032;28;20031;-91
2023/06/30 11:02:34;;;;;;;26.05;11.90;;;19.90;99.90;;;;;;5052437;28;20115;-92
2023/06/30 11:05:21;;;;;;;23.80;12.13;;;20.00;99.90;;;;;;5047321;28;20542;-92
2023/06/30 11:08:00;;;;;;;25.05;12.23;;;20.00;99.90;;;;;;5047149;28;20032;-88
2023/06/30 11:10:30;;;;;;;30.15;13.27;;;20.10;99.90;;;;;;5047563;28;20033;-95
2023/06/30 11:12:56;;;;;;;23.90;11.90;;;20.20;99.90;;;;;;5051994;28;20396;-93
2023/06/30 11:15:44;;;;;;;25.42;11.05;;;20.30;99.90;;;;;;5038542;28;20076;-94
2023/06/30 11:18:10;;;;;;;31.98;12.20;;;20.40;99.90;;;;;;5051613;28;20033;-87
2023/06/30 11:20:36;;;;;;;22.60;11.40;;;20.40;99.90;;;;;;5056793;28;20024;-96
2023/06/30 11:23:17;;;;;;;22.83;11.30;;;20.50;99.90;;;;;;5053978;28;20032;-93
2023/06/30 11:25:43;;;;;;;19.00;9.85;;;20.60;99.90;;;;;;5051184;28;20744;-95
2023/06/30 11:28:11;;;;;;;23.30;11.38;;;20.50;99.90;;;;;;5062216;28;20040;-93
2023/06/30 11:30:40;;;;;;;24.10;10.32;;;20.50;99.90;;;;;;5054684;28;20032;-95
2023/06/30 11:33:07;;;;;;;25.25;10.48;;;20.60;99.90;;;;;;5057997;28;20032;-92
2023/06/30 11:35:34;;;;;;;21.77;10.15;;;20.60;99.90;;;;;;5048730;28;20059;-93
2023/06/30 11:38:00;;;;;;;24.60;10.93;;;20.60;99.90;;;;;;5054355;28;20032;-93
2023/06/30 11:40:27;;;;;;;22.45;10.40;;;20.60;99.90;;;;;;5063030;28;20082;-92
2023/06/30 11:42:53;;;;;;;23.88;10.77;;;20.50;99.90;;;;;;5055036;28;20036;-92
2023/06/30 11:45:20;;;;;;;22.10;11.27;;;20.60;99.90;;;;;;5047977;28;20024;-94
2023/06/30 11:47:51;;;;;;;24.92;11.20;;;20.60;99.90;;;;;;5051947;28;20035;-94
2023/06/30 11:50:18;;;;;;;22.13;10.15;;;20.70;99.90;;;;;;5044507;28;20151;-92
2023/06/30 11:52:46;;;;;;;24.33;10.77;;;20.70;99.90;;;;;;5051350;28;20029;-90
2023/06/30 11:55:13;;;;;;;24.45;11.10;;;20.70;99.90;;;;;;5044773;28;20079;-88
2023/06/30 11:57:48;;;;;;;22.90;11.38;;;20.70;99.90;;;;;;5044430;28;20106;-89
2023/06/30 12:00:22;;;;;;;27.13;11.77;;;20.70;99.90;;;;;;5051362;28;20539;-90
2023/06/30 12:02:48;;;;;;;27.90;11.63;;;20.70;99.90;;;;;;5057684;28;20060;-90
2023/06/30 12:05:21;;;;;;;26.05;11.23;;;20.60;99.90;;;;;;5050865;28;20031;-88
2023/06/30 12:07:50;;;;;;;20.63;10.52;;;20.60;99.90;;;;;;5048042;28;20473;-90
2023/06/30 12:10:15;;;;;;;27.98;12.00;;;20.60;99.90;;;;;;5050743;28;20036;-90
2023/06/30 12:12:41;;;;;;;24.08;12.13;;;20.70;99.90;;;;;;5064818;28;21951;-89
2023/06/30 12:15:10;;;;;;;23.30;11.75;;;20.70;99.90;;;;;;5050071;28;20488;-89
2023/06/30 12:17:43;;;;;;;26.48;11.90;;;20.70;99.90;;;;;;5046361;28;20480;-93
2023/06/30 12:20:10;;;;;;;24.70;11.85;;;20.70;99.90;;;;;;5046609;28;20512;-92
2023/06/30 12:22:38;;;;;;;30.20;11.50;;;20.80;99.90;;;;;;5046482;28;20035;-91
2023/06/30 12:25:07;;;;;;;23.38;11.18;;;20.80;99.90;;;;;;5043804;28;20111;-92
2023/06/30 12:27:35;;;;;;;21.00;10.10;;;20.80;99.90;;;;;;5045297;28;20187;-93
2023/06/30 12:30:01;;;;;;;23.08;11.20;;;20.80;99.90;;;;;;5041677;28;20386;-94